sensor_id;sensor_type;location;lat;lon;timestamp;P1;durP1;ratioP1;P2;durP2;ratioP2
60030;SDS011;45901;47.600;9.890;2023-04-03T00:00:59;2.90;;;2.00;;
60030;SDS011;45901;47.600;9.890;2023-04-03T00:03:26;2.70;;;2.00;;
60030;SDS011;45901;47.600;9.890;2023-04-03T00:05:55;3.30;;;2.20;;
60030;SDS011;45901;47.600;9.890;2023-04-03T00:08:23;3.27;;;2.20;;
60030;SDS011;45901;47.600;9.890;2023-04-03T00:10:50;2.97;;;2.27;;
60030;SDS011;45901;47.600;9.890;2023-04-03T00:13:18;3.33;;;2.33;;
60030;SDS011;45901;47.600;9.890;2023-04-03T00:15:45;4.20;;;2.33;;
60030;SDS011;45901;47.600;9.890;2023-04-03T00:18:13;4.57;;;2.70;;
60030;SDS011;45901;47.600;9.890;2023-04-03T00:20:40;3.97;;;2.30;;
60030;SDS011;45901;47.600;9.890;2023-04-03T00:23:09;5.23;;;2.83;;
60030;SDS011;45901;47.600;9.890;2023-04-03T00:25:38;3.73;;;2.80;;
60030;SDS011;45901;47.600;9.890;2023-04-03T00:28:05;3.23;;;2.43;;
60030;SDS011;45901;47.600;9.890;2023-04-03T00:30:33;3.90;;;2.70;;
60030;SDS011;45901;47.600;9.890;2023-04-03T00:33:01;3.63;;;2.80;;
60030;SDS011;45901;47.600;9.890;2023-04-03T00:35:29;4.17;;;2.53;;
60030;SDS011;45901;47.600;9.890;2023-04-03T00:37:56;4.60;;;3.20;;
60030;SDS011;45901;47.600;9.890;2023-04-03T00:40:26;3.90;;;2.80;;
60030;SDS011;45901;47.600;9.890;2023-04-03T00:42:55;4.80;;;3.33;;
60030;SDS011;45901;47.600;9.890;2023-04-03T00:45:32;6.63;;;3.30;;
60030;SDS011;45901;47.600;9.890;2023-04-03T00:48:02;5.20;;;2.77;;
60030;SDS011;45901;47.600;9.890;2023-04-03T00:50:34;5.20;;;3.20;;
60030;SDS011;45901;47.600;9.890;2023-04-03T00:53:04;4.77;;;3.10;;
60030;SDS011;45901;47.600;9.890;2023-04-03T00:55:36;4.17;;;2.87;;
60030;SDS011;45901;47.600;9.890;2023-04-03T00:58:05;5.53;;;3.20;;
60030;SDS011;45901;47.600;9.890;2023-04-03T01:00:34;5.20;;;3.33;;
60030;SDS011;45901;47.600;9.890;2023-04-03T01:03:05;5.17;;;3.10;;
60030;SDS011;45901;47.600;9.890;2023-04-03T01:05:32;5.10;;;3.20;;
60030;SDS011;45901;47.600;9.890;2023-04-03T01:08:00;4.10;;;3.17;;
60030;SDS011;45901;47.600;9.890;2023-04-03T01:10:28;5.43;;;3.33;;
60030;SDS011;45901;47.600;9.890;2023-04-03T01:12:57;3.70;;;3.10;;
60030;SDS011;45901;47.600;9.890;2023-04-03T01:15:26;5.00;;;3.60;;
60030;SDS011;45901;47.600;9.890;2023-04-03T01:18:00;4.90;;;3.37;;
60030;SDS011;45901;47.600;9.890;2023-04-03T01:20:40;4.50;;;3.50;;
60030;SDS011;45901;47.600;9.890;2023-04-03T01:23:49;4.97;;;3.53;;
60030;SDS011;45901;47.600;9.890;2023-04-03T01:26:28;5.40;;;3.60;;
60030;SDS011;45901;47.600;9.890;2023-04-03T01:28:59;5.53;;;3.90;;
60030;SDS011;45901;47.600;9.890;2023-04-03T01:31:28;4.37;;;3.67;;
60030;SDS011;45901;47.600;9.890;2023-04-03T01:34:09;5.90;;;3.53;;
60030;SDS011;45901;47.600;9.890;2023-04-03T01:36:37;5.13;;;3.63;;
60030;SDS011;45901;47.600;9.890;2023-04-03T01:39:05;5.30;;;3.93;;
60030;SDS011;45901;47.600;9.890;2023-04-03T01:41:32;4.23;;;3.27;;
60030;SDS011;45901;47.600;9.890;2023-04-03T01:44:00;5.93;;;3.53;;
60030;SDS011;45901;47.600;9.890;2023-04-03T01:46:29;5.00;;;3.70;;
60030;SDS011;45901;47.600;9.890;2023-04-03T01:48:57;5.70;;;4.10;;
60030;SDS011;45901;47.600;9.890;2023-04-03T01:51:25;5.23;;;3.80;;
60030;SDS011;45901;47.600;9.890;2023-04-03T01:53:52;4.37;;;3.17;;
60030;SDS011;45901;47.600;9.890;2023-04-03T01:56:20;4.83;;;3.43;;
60030;SDS011;45901;47.600;9.890;2023-04-03T01:58:47;4.73;;;3.70;;
60030;SDS011;45901;47.600;9.890;2023-04-03T02:01:15;6.20;;;4.20;;
60030;SDS011;45901;47.600;9.890;2023-04-03T02:03:43;5.57;;;3.70;;
60030;SDS011;45901;47.600;9.890;2023-04-03T02:06:12;5.30;;;4.03;;
60030;SDS011;45901;47.600;9.890;2023-04-03T02:08:40;5.50;;;3.77;;
60030;SDS011;45901;47.600;9.890;2023-04-03T02:11:07;6.00;;;4.00;;
60030;SDS011;45901;47.600;9.890;2023-04-03T02:13:35;6.37;;;4.27;;
60030;SDS011;45901;47.600;9.890;2023-04-03T02:16:06;5.07;;;4.00;;
60030;SDS011;45901;47.600;9.890;2023-04-03T02:18:35;4.93;;;3.97;;
60030;SDS011;45901;47.600;9.890;2023-04-03T02:21:02;6.37;;;4.50;;
60030;SDS011;45901;47.600;9.890;2023-04-03T02:23:32;5.30;;;4.10;;
60030;SDS011;45901;47.600;9.890;2023-04-03T02:26:04;8.20;;;4.67;;
60030;SDS011;45901;47.600;9.890;2023-04-03T02:28:34;6.43;;;4.70;;
60030;SDS011;45901;47.600;9.890;2023-04-03T02:31:02;6.53;;;4.67;;
60030;SDS011;45901;47.600;9.890;2023-04-03T02:33:31;5.97;;;4.23;;
60030;SDS011;45901;47.600;9.890;2023-04-03T02:35:58;6.67;;;5.00;;
60030;SDS011;45901;47.600;9.890;2023-04-03T02:38:26;6.60;;;4.73;;
60030;SDS011;45901;47.600;9.890;2023-04-03T02:40:55;6.73;;;4.83;;
60030;SDS011;45901;47.600;9.890;2023-04-03T02:43:27;6.53;;;4.63;;
60030;SDS011;45901;47.600;9.890;2023-04-03T02:45:54;5.53;;;4.53;;
60030;SDS011;45901;47.600;9.890;2023-04-03T02:48:21;7.30;;;5.13;;
60030;SDS011;45901;47.600;9.890;2023-04-03T02:50:49;5.80;;;4.50;;
60030;SDS011;45901;47.600;9.890;2023-04-03T02:53:16;8.03;;;5.43;;
60030;SDS011;45901;47.600;9.890;2023-04-03T02:55:44;7.47;;;5.13;;
60030;SDS011;45901;47.600;9.890;2023-04-03T02:58:13;6.67;;;5.27;;
60030;SDS011;45901;47.600;9.890;2023-04-03T03:00:41;6.27;;;5.07;;
60030;SDS011;45901;47.600;9.890;2023-04-03T03:03:09;7.10;;;5.07;;
60030;SDS011;45901;47.600;9.890;2023-04-03T03:05:36;8.57;;;5.50;;
60030;SDS011;45901;47.600;9.890;2023-04-03T03:08:03;7.23;;;5.07;;
60030;SDS011;45901;47.600;9.890;2023-04-03T03:10:31;9.27;;;5.30;;
60030;SDS011;45901;47.600;9.890;2023-04-03T03:12:58;6.90;;;5.07;;
60030;SDS011;45901;47.600;9.890;2023-04-03T03:15:27;7.70;;;5.40;;
60030;SDS011;45901;47.600;9.890;2023-04-03T03:17:54;7.10;;;5.20;;
60030;SDS011;45901;47.600;9.890;2023-04-03T03:20:22;8.37;;;5.03;;
60030;SDS011;45901;47.600;9.890;2023-04-03T03:22:49;9.03;;;5.43;;
60030;SDS011;45901;47.600;9.890;2023-04-03T03:25:16;7.63;;;5.17;;
60030;SDS011;45901;47.600;9.890;2023-04-03T03:27:44;7.50;;;4.90;;
60030;SDS011;45901;47.600;9.890;2023-04-03T03:30:11;6.37;;;5.10;;
60030;SDS011;45901;47.600;9.890;2023-04-03T03:32:40;7.70;;;5.77;;
60030;SDS011;45901;47.600;9.890;2023-04-03T03:35:08;8.20;;;6.03;;
60030;SDS011;45901;47.600;9.890;2023-04-03T03:37:35;7.00;;;5.13;;
60030;SDS011;45901;47.600;9.890;2023-04-03T03:40:02;8.53;;;5.73;;
60030;SDS011;45901;47.600;9.890;2023-04-03T03:42:31;8.30;;;5.63;;
60030;SDS011;45901;47.600;9.890;2023-04-03T03:44:58;9.27;;;6.27;;
60030;SDS011;45901;47.600;9.890;2023-04-03T03:47:25;8.50;;;5.50;;
60030;SDS011;45901;47.600;9.890;2023-04-03T03:49:54;10.00;;;6.17;;
60030;SDS011;45901;47.600;9.890;2023-04-03T03:52:21;8.07;;;5.67;;
60030;SDS011;45901;47.600;9.890;2023-04-03T03:54:48;9.37;;;5.37;;
60030;SDS011;45901;47.600;9.890;2023-04-03T03:57:15;8.40;;;5.63;;
60030;SDS011;45901;47.600;9.890;2023-04-03T03:59:42;8.87;;;6.40;;
60030;SDS011;45901;47.600;9.890;2023-04-03T04:02:10;7.57;;;5.57;;
60030;SDS011;45901;47.600;9.890;2023-04-03T04:04:37;7.60;;;5.80;;
60030;SDS011;45901;47.600;9.890;2023-04-03T04:07:06;8.07;;;5.80;;
60030;SDS011;45901;47.600;9.890;2023-04-03T04:09:33;8.40;;;6.17;;
60030;SDS011;45901;47.600;9.890;2023-04-03T04:12:00;7.47;;;5.70;;
60030;SDS011;45901;47.600;9.890;2023-04-03T04:14:27;8.73;;;6.20;;
60030;SDS011;45901;47.600;9.890;2023-04-03T04:16:54;7.90;;;6.10;;
60030;SDS011;45901;47.600;9.890;2023-04-03T04:19:22;7.47;;;5.67;;
60030;SDS011;45901;47.600;9.890;2023-04-03T04:21:49;8.33;;;5.87;;
60030;SDS011;45901;47.600;9.890;2023-04-03T04:24:18;9.27;;;6.43;;
60030;SDS011;45901;47.600;9.890;2023-04-03T04:26:45;7.93;;;6.20;;
60030;SDS011;45901;47.600;9.890;2023-04-03T04:29:12;10.23;;;5.83;;
60030;SDS011;45901;47.600;9.890;2023-04-03T04:31:40;9.87;;;6.27;;
60030;SDS011;45901;47.600;9.890;2023-04-03T04:34:07;7.93;;;6.20;;
60030;SDS011;45901;47.600;9.890;2023-04-03T04:36:34;8.30;;;6.20;;
60030;SDS011;45901;47.600;9.890;2023-04-03T04:39:01;8.70;;;5.73;;
60030;SDS011;45901;47.600;9.890;2023-04-03T04:41:30;8.83;;;5.97;;
60030;SDS011;45901;47.600;9.890;2023-04-03T04:43:57;12.00;;;6.87;;
60030;SDS011;45901;47.600;9.890;2023-04-03T04:46:25;7.57;;;5.67;;
60030;SDS011;45901;47.600;9.890;2023-04-03T04:48:52;9.47;;;6.30;;
60030;SDS011;45901;47.600;9.890;2023-04-03T04:51:19;10.00;;;6.40;;
60030;SDS011;45901;47.600;9.890;2023-04-03T04:53:47;8.67;;;6.23;;
60030;SDS011;45901;47.600;9.890;2023-04-03T04:56:14;10.57;;;6.90;;
60030;SDS011;45901;47.600;9.890;2023-04-03T04:58:43;9.07;;;6.23;;
60030;SDS011;45901;47.600;9.890;2023-04-03T05:01:11;11.93;;;6.43;;
60030;SDS011;45901;47.600;9.890;2023-04-03T05:03:38;9.40;;;6.50;;
60030;SDS011;45901;47.600;9.890;2023-04-03T05:06:05;8.70;;;6.57;;
60030;SDS011;45901;47.600;9.890;2023-04-03T05:08:33;11.83;;;6.93;;
60030;SDS011;45901;47.600;9.890;2023-04-03T05:11:00;11.63;;;7.10;;
60030;SDS011;45901;47.600;9.890;2023-04-03T05:13:27;10.47;;;7.13;;
60030;SDS011;45901;47.600;9.890;2023-04-03T05:15:56;11.23;;;7.20;;
60030;SDS011;45901;47.600;9.890;2023-04-03T05:18:24;12.10;;;7.73;;
60030;SDS011;45901;47.600;9.890;2023-04-03T05:20:51;10.73;;;7.23;;
60030;SDS011;45901;47.600;9.890;2023-04-03T05:23:18;9.77;;;7.20;;
60030;SDS011;45901;47.600;9.890;2023-04-03T05:25:45;10.13;;;7.30;;
60030;SDS011;45901;47.600;9.890;2023-04-03T05:28:13;9.33;;;6.70;;
60030;SDS011;45901;47.600;9.890;2023-04-03T05:30:41;10.13;;;6.50;;
60030;SDS011;45901;47.600;9.890;2023-04-03T05:33:09;8.97;;;6.30;;
60030;SDS011;45901;47.600;9.890;2023-04-03T05:35:37;12.13;;;7.10;;
60030;SDS011;45901;47.600;9.890;2023-04-03T05:38:06;9.60;;;7.17;;
60030;SDS011;45901;47.600;9.890;2023-04-03T05:40:33;9.67;;;6.80;;
60030;SDS011;45901;47.600;9.890;2023-04-03T05:43:01;9.93;;;6.60;;
60030;SDS011;45901;47.600;9.890;2023-04-03T05:45:28;9.97;;;6.70;;
60030;SDS011;45901;47.600;9.890;2023-04-03T05:47:56;8.83;;;6.30;;
60030;SDS011;45901;47.600;9.890;2023-04-03T05:50:25;8.90;;;6.37;;
60030;SDS011;45901;47.600;9.890;2023-04-03T05:52:52;9.57;;;7.27;;
60030;SDS011;45901;47.600;9.890;2023-04-03T05:55:23;8.83;;;6.77;;
60030;SDS011;45901;47.600;9.890;2023-04-03T05:57:51;9.27;;;6.47;;
60030;SDS011;45901;47.600;9.890;2023-04-03T06:00:18;9.27;;;6.53;;
60030;SDS011;45901;47.600;9.890;2023-04-03T06:02:46;8.47;;;6.17;;
60030;SDS011;45901;47.600;9.890;2023-04-03T06:05:13;9.07;;;6.43;;
60030;SDS011;45901;47.600;9.890;2023-04-03T06:07:42;6.63;;;5.50;;
60030;SDS011;45901;47.600;9.890;2023-04-03T06:10:11;9.67;;;5.90;;
60030;SDS011;45901;47.600;9.890;2023-04-03T06:12:38;8.50;;;5.50;;
60030;SDS011;45901;47.600;9.890;2023-04-03T06:15:07;9.47;;;5.50;;
60030;SDS011;45901;47.600;9.890;2023-04-03T06:17:35;8.50;;;5.40;;
60030;SDS011;45901;47.600;9.890;2023-04-03T06:20:03;9.30;;;5.10;;
60030;SDS011;45901;47.600;9.890;2023-04-03T06:22:31;8.50;;;5.33;;
60030;SDS011;45901;47.600;9.890;2023-04-03T06:24:59;7.93;;;5.47;;
60030;SDS011;45901;47.600;9.890;2023-04-03T06:27:27;9.10;;;5.70;;
60030;SDS011;45901;47.600;9.890;2023-04-03T06:29:55;8.43;;;5.20;;
60030;SDS011;45901;47.600;9.890;2023-04-03T06:32:22;8.67;;;4.90;;
60030;SDS011;45901;47.600;9.890;2023-04-03T06:34:50;7.87;;;5.60;;
60030;SDS011;45901;47.600;9.890;2023-04-03T06:37:19;8.77;;;5.80;;
60030;SDS011;45901;47.600;9.890;2023-04-03T06:39:51;9.40;;;5.43;;
60030;SDS011;45901;47.600;9.890;2023-04-03T06:42:20;7.63;;;5.30;;
60030;SDS011;45901;47.600;9.890;2023-04-03T06:44:48;9.10;;;5.50;;
60030;SDS011;45901;47.600;9.890;2023-04-03T06:47:15;7.20;;;5.10;;
60030;SDS011;45901;47.600;9.890;2023-04-03T06:49:43;6.97;;;4.60;;
60030;SDS011;45901;47.600;9.890;2023-04-03T06:52:10;7.87;;;4.73;;
60030;SDS011;45901;47.600;9.890;2023-04-03T06:54:38;6.93;;;5.30;;
60030;SDS011;45901;47.600;9.890;2023-04-03T06:57:06;5.77;;;4.40;;
60030;SDS011;45901;47.600;9.890;2023-04-03T06:59:35;6.97;;;4.87;;
60030;SDS011;45901;47.600;9.890;2023-04-03T07:02:02;6.77;;;4.83;;
60030;SDS011;45901;47.600;9.890;2023-04-03T07:04:29;7.00;;;4.70;;
60030;SDS011;45901;47.600;9.890;2023-04-03T07:06:57;7.53;;;4.60;;
60030;SDS011;45901;47.600;9.890;2023-04-03T07:09:24;6.10;;;4.63;;
60030;SDS011;45901;47.600;9.890;2023-04-03T07:11:51;6.20;;;4.67;;
60030;SDS011;45901;47.600;9.890;2023-04-03T07:14:18;6.30;;;4.50;;
60030;SDS011;45901;47.600;9.890;2023-04-03T07:16:47;7.17;;;4.80;;
60030;SDS011;45901;47.600;9.890;2023-04-03T07:19:18;5.00;;;3.77;;
60030;SDS011;45901;47.600;9.890;2023-04-03T07:21:45;5.73;;;3.53;;
60030;SDS011;45901;47.600;9.890;2023-04-03T07:24:12;10.20;;;4.67;;
60030;SDS011;45901;47.600;9.890;2023-04-03T07:26:39;5.97;;;4.03;;
60030;SDS011;45901;47.600;9.890;2023-04-03T07:29:07;6.70;;;4.63;;
60030;SDS011;45901;47.600;9.890;2023-04-03T07:31:34;6.43;;;4.43;;
60030;SDS011;45901;47.600;9.890;2023-04-03T07:34:03;6.57;;;4.10;;
60030;SDS011;45901;47.600;9.890;2023-04-03T07:36:30;6.53;;;3.77;;
60030;SDS011;45901;47.600;9.890;2023-04-03T07:38:58;5.50;;;3.63;;
60030;SDS011;45901;47.600;9.890;2023-04-03T07:41:25;5.10;;;3.67;;
60030;SDS011;45901;47.600;9.890;2023-04-03T07:43:53;6.67;;;3.83;;
60030;SDS011;45901;47.600;9.890;2023-04-03T07:46:21;5.90;;;4.03;;
60030;SDS011;45901;47.600;9.890;2023-04-03T07:48:49;6.40;;;4.57;;
60030;SDS011;45901;47.600;9.890;2023-04-03T07:51:17;9.33;;;4.70;;
60030;SDS011;45901;47.600;9.890;2023-04-03T07:53:45;6.10;;;3.87;;
60030;SDS011;45901;47.600;9.890;2023-04-03T07:56:13;4.90;;;3.40;;
60030;SDS011;45901;47.600;9.890;2023-04-03T07:58:41;5.23;;;3.63;;
60030;SDS011;45901;47.600;9.890;2023-04-03T08:01:08;5.37;;;3.73;;
60030;SDS011;45901;47.600;9.890;2023-04-03T08:03:36;5.03;;;3.57;;
60030;SDS011;45901;47.600;9.890;2023-04-03T08:06:04;4.40;;;3.50;;
60030;SDS011;45901;47.600;9.890;2023-04-03T08:08:34;6.77;;;4.20;;
60030;SDS011;45901;47.600;9.890;2023-04-03T08:11:02;6.20;;;3.70;;
60030;SDS011;45901;47.600;9.890;2023-04-03T08:13:31;8.57;;;4.07;;
60030;SDS011;45901;47.600;9.890;2023-04-03T08:16:06;5.40;;;3.97;;
60030;SDS011;45901;47.600;9.890;2023-04-03T08:18:36;7.67;;;3.27;;
60030;SDS011;45901;47.600;9.890;2023-04-03T08:21:07;4.90;;;3.30;;
60030;SDS011;45901;47.600;9.890;2023-04-03T08:23:36;4.13;;;2.93;;
60030;SDS011;45901;47.600;9.890;2023-04-03T08:26:08;4.23;;;3.03;;
60030;SDS011;45901;47.600;9.890;2023-04-03T08:28:36;4.40;;;3.13;;
60030;SDS011;45901;47.600;9.890;2023-04-03T08:31:06;5.07;;;3.07;;
60030;SDS011;45901;47.600;9.890;2023-04-03T08:33:36;3.80;;;3.07;;
60030;SDS011;45901;47.600;9.890;2023-04-03T08:36:05;4.27;;;3.17;;
60030;SDS011;45901;47.600;9.890;2023-04-03T08:38:43;9.13;;;4.63;;
60030;SDS011;45901;47.600;9.890;2023-04-03T08:41:13;5.50;;;3.97;;
60030;SDS011;45901;47.600;9.890;2023-04-03T08:43:58;6.83;;;4.33;;
60030;SDS011;45901;47.600;9.890;2023-04-03T08:46:42;5.63;;;4.07;;
60030;SDS011;45901;47.600;9.890;2023-04-03T08:49:25;5.70;;;4.20;;
60030;SDS011;45901;47.600;9.890;2023-04-03T08:51:57;6.33;;;4.53;;
60030;SDS011;45901;47.600;9.890;2023-04-03T08:54:32;10.37;;;4.60;;
60030;SDS011;45901;47.600;9.890;2023-04-03T08:57:04;7.53;;;4.97;;
60030;SDS011;45901;47.600;9.890;2023-04-03T08:59:33;6.53;;;4.80;;
60030;SDS011;45901;47.600;9.890;2023-04-03T09:02:04;7.70;;;4.73;;
60030;SDS011;45901;47.600;9.890;2023-04-03T09:04:49;6.83;;;4.70;;
60030;SDS011;45901;47.600;9.890;2023-04-03T09:07:18;7.27;;;5.27;;
60030;SDS011;45901;47.600;9.890;2023-04-03T09:09:55;7.20;;;4.63;;
60030;SDS011;45901;47.600;9.890;2023-04-03T09:12:26;6.20;;;4.60;;
60030;SDS011;45901;47.600;9.890;2023-04-03T09:15:05;8.40;;;5.67;;
60030;SDS011;45901;47.600;9.890;2023-04-03T09:17:45;10.03;;;6.37;;
60030;SDS011;45901;47.600;9.890;2023-04-03T09:20:25;9.77;;;5.50;;
60030;SDS011;45901;47.600;9.890;2023-04-03T09:23:04;7.80;;;5.40;;
60030;SDS011;45901;47.600;9.890;2023-04-03T09:25:44;7.20;;;5.30;;
60030;SDS011;45901;47.600;9.890;2023-04-03T09:28:41;10.43;;;5.57;;
60030;SDS011;45901;47.600;9.890;2023-04-03T09:35:14;9.00;;;5.33;;
60030;SDS011;45901;47.600;9.890;2023-04-03T09:37:47;7.30;;;4.97;;
60030;SDS011;45901;47.600;9.890;2023-04-03T09:40:30;10.23;;;7.23;;
60030;SDS011;45901;47.600;9.890;2023-04-03T09:43:20;7.43;;;5.40;;
60030;SDS011;45901;47.600;9.890;2023-04-03T09:45:51;8.30;;;5.20;;
60030;SDS011;45901;47.600;9.890;2023-04-03T09:48:20;8.80;;;5.50;;
60030;SDS011;45901;47.600;9.890;2023-04-03T09:50:57;12.53;;;5.13;;
60030;SDS011;45901;47.600;9.890;2023-04-03T09:53:28;10.57;;;5.87;;
60030;SDS011;45901;47.600;9.890;2023-04-03T09:56:00;9.30;;;5.37;;
60030;SDS011;45901;47.600;9.890;2023-04-03T09:58:33;8.97;;;5.60;;
60030;SDS011;45901;47.600;9.890;2023-04-03T10:01:05;8.97;;;4.77;;
60030;SDS011;45901;47.600;9.890;2023-04-03T10:03:47;9.17;;;5.30;;
60030;SDS011;45901;47.600;9.890;2023-04-03T10:06:32;9.37;;;5.30;;
60030;SDS011;45901;47.600;9.890;2023-04-03T10:09:02;7.40;;;4.93;;
60030;SDS011;45901;47.600;9.890;2023-04-03T10:11:39;7.40;;;5.00;;
60030;SDS011;45901;47.600;9.890;2023-04-03T10:14:28;7.30;;;4.97;;
60030;SDS011;45901;47.600;9.890;2023-04-03T10:16:59;6.63;;;4.73;;
60030;SDS011;45901;47.600;9.890;2023-04-03T10:19:41;6.17;;;4.63;;
60030;SDS011;45901;47.600;9.890;2023-04-03T10:22:16;5.87;;;4.20;;
60030;SDS011;45901;47.600;9.890;2023-04-03T10:24:58;9.00;;;4.60;;
60030;SDS011;45901;47.600;9.890;2023-04-03T10:27:39;8.87;;;4.70;;
60030;SDS011;45901;47.600;9.890;2023-04-03T10:30:30;20.67;;;5.60;;
60030;SDS011;45901;47.600;9.890;2023-04-03T10:33:08;5.27;;;4.03;;
60030;SDS011;45901;47.600;9.890;2023-04-03T10:35:52;9.47;;;4.77;;
60030;SDS011;45901;47.600;9.890;2023-04-03T10:38:36;9.47;;;4.67;;
60030;SDS011;45901;47.600;9.890;2023-04-03T10:41:16;9.00;;;4.03;;
60030;SDS011;45901;47.600;9.890;2023-04-03T10:43:53;10.23;;;4.30;;
60030;SDS011;45901;47.600;9.890;2023-04-03T10:46:34;8.00;;;3.87;;
60030;SDS011;45901;47.600;9.890;2023-04-03T10:49:14;6.97;;;4.10;;
60030;SDS011;45901;47.600;9.890;2023-04-03T10:51:56;8.23;;;3.87;;
60030;SDS011;45901;47.600;9.890;2023-04-03T10:54:33;7.37;;;3.33;;
60030;SDS011;45901;47.600;9.890;2023-04-03T10:57:05;6.70;;;3.57;;
60030;SDS011;45901;47.600;9.890;2023-04-03T10:59:36;5.87;;;3.70;;
60030;SDS011;45901;47.600;9.890;2023-04-03T11:02:13;6.17;;;2.93;;
60030;SDS011;45901;47.600;9.890;2023-04-03T11:04:50;5.53;;;3.30;;
60030;SDS011;45901;47.600;9.890;2023-04-03T11:07:23;5.50;;;3.63;;
60030;SDS011;45901;47.600;9.890;2023-04-03T11:09:57;5.37;;;3.30;;
60030;SDS011;45901;47.600;9.890;2023-04-03T11:12:29;7.23;;;2.87;;
60030;SDS011;45901;47.600;9.890;2023-04-03T11:15:05;4.70;;;3.10;;
60030;SDS011;45901;47.600;9.890;2023-04-03T11:38:25;5.40;;;2.47;;
60030;SDS011;45901;47.600;9.890;2023-04-03T11:53:10;4.10;;;2.60;;
60030;SDS011;45901;47.600;9.890;2023-04-03T11:56:01;3.97;;;2.70;;
60030;SDS011;45901;47.600;9.890;2023-04-03T11:59:21;3.77;;;2.30;;
60030;SDS011;45901;47.600;9.890;2023-04-03T12:02:36;3.67;;;2.30;;
60030;SDS011;45901;47.600;9.890;2023-04-03T12:14:03;9.00;;;3.47;;
60030;SDS011;45901;47.600;9.890;2023-04-03T12:16:32;3.17;;;2.40;;
60030;SDS011;45901;47.600;9.890;2023-04-03T12:19:33;3.47;;;2.60;;
60030;SDS011;45901;47.600;9.890;2023-04-03T12:22:09;4.93;;;2.63;;
60030;SDS011;45901;47.600;9.890;2023-04-03T12:24:46;5.87;;;2.60;;
60030;SDS011;45901;47.600;9.890;2023-04-03T12:27:24;3.97;;;2.60;;
60030;SDS011;45901;47.600;9.890;2023-04-03T12:40:14;3.90;;;2.40;;
60030;SDS011;45901;47.600;9.890;2023-04-03T12:53:42;6.07;;;3.20;;
60030;SDS011;45901;47.600;9.890;2023-04-03T12:56:18;3.50;;;2.33;;
60030;SDS011;45901;47.600;9.890;2023-04-03T12:58:49;5.07;;;2.77;;
60030;SDS011;45901;47.600;9.890;2023-04-03T13:01:20;6.17;;;3.73;;
60030;SDS011;45901;47.600;9.890;2023-04-03T13:03:50;4.60;;;2.60;;
60030;SDS011;45901;47.600;9.890;2023-04-03T13:06:22;6.17;;;2.53;;
60030;SDS011;45901;47.600;9.890;2023-04-03T13:08:54;6.20;;;3.23;;
60030;SDS011;45901;47.600;9.890;2023-04-03T13:11:24;5.17;;;2.50;;
60030;SDS011;45901;47.600;9.890;2023-04-03T13:13:57;4.33;;;2.70;;
60030;SDS011;45901;47.600;9.890;2023-04-03T13:16:27;5.40;;;2.60;;
60030;SDS011;45901;47.600;9.890;2023-04-03T13:18:54;5.17;;;3.10;;
60030;SDS011;45901;47.600;9.890;2023-04-03T13:21:24;7.97;;;3.27;;
60030;SDS011;45901;47.600;9.890;2023-04-03T13:23:55;3.90;;;2.57;;
60030;SDS011;45901;47.600;9.890;2023-04-03T13:26:38;7.20;;;2.90;;
60030;SDS011;45901;47.600;9.890;2023-04-03T13:29:14;3.70;;;2.17;;
60030;SDS011;45901;47.600;9.890;2023-04-03T13:32:00;6.27;;;3.30;;
60030;SDS011;45901;47.600;9.890;2023-04-03T13:38:47;5.57;;;2.83;;
60030;SDS011;45901;47.600;9.890;2023-04-03T13:50:12;3.80;;;2.37;;
60030;SDS011;45901;47.600;9.890;2023-04-03T14:05:27;4.80;;;2.80;;
60030;SDS011;45901;47.600;9.890;2023-04-03T14:07:55;4.57;;;2.80;;
60030;SDS011;45901;47.600;9.890;2023-04-03T14:10:24;4.53;;;2.87;;
60030;SDS011;45901;47.600;9.890;2023-04-03T14:12:51;3.87;;;2.40;;
60030;SDS011;45901;47.600;9.890;2023-04-03T14:15:37;3.50;;;2.47;;
60030;SDS011;45901;47.600;9.890;2023-04-03T14:18:04;5.83;;;2.40;;
60030;SDS011;45901;47.600;9.890;2023-04-03T14:20:33;5.43;;;2.60;;
60030;SDS011;45901;47.600;9.890;2023-04-03T14:23:03;6.50;;;3.00;;
60030;SDS011;45901;47.600;9.890;2023-04-03T14:25:31;5.07;;;2.60;;
60030;SDS011;45901;47.600;9.890;2023-04-03T14:28:38;4.20;;;2.70;;
60030;SDS011;45901;47.600;9.890;2023-04-03T14:31:37;4.37;;;2.50;;
60030;SDS011;45901;47.600;9.890;2023-04-03T14:34:27;5.53;;;2.67;;
60030;SDS011;45901;47.600;9.890;2023-04-03T14:36:55;3.63;;;2.50;;
60030;SDS011;45901;47.600;9.890;2023-04-03T14:39:23;4.10;;;2.80;;
60030;SDS011;45901;47.600;9.890;2023-04-03T14:41:50;3.57;;;2.40;;
60030;SDS011;45901;47.600;9.890;2023-04-03T14:44:20;5.03;;;2.60;;
60030;SDS011;45901;47.600;9.890;2023-04-03T14:46:48;5.57;;;2.80;;
60030;SDS011;45901;47.600;9.890;2023-04-03T14:49:35;4.83;;;2.80;;
60030;SDS011;45901;47.600;9.890;2023-04-03T14:52:19;5.17;;;3.20;;
60030;SDS011;45901;47.600;9.890;2023-04-03T14:54:50;6.37;;;3.50;;
60030;SDS011;45901;47.600;9.890;2023-04-03T14:57:19;6.03;;;3.17;;
60030;SDS011;45901;47.600;9.890;2023-04-03T14:59:50;4.63;;;2.67;;
60030;SDS011;45901;47.600;9.890;2023-04-03T15:02:26;5.97;;;3.30;;
60030;SDS011;45901;47.600;9.890;2023-04-03T15:04:56;6.37;;;3.40;;
60030;SDS011;45901;47.600;9.890;2023-04-03T15:07:27;6.43;;;3.20;;
60030;SDS011;45901;47.600;9.890;2023-04-03T15:09:56;4.37;;;2.73;;
60030;SDS011;45901;47.600;9.890;2023-04-03T15:12:24;5.40;;;2.90;;
60030;SDS011;45901;47.600;9.890;2023-04-03T15:14:52;5.80;;;3.60;;
60030;SDS011;45901;47.600;9.890;2023-04-03T15:17:21;4.37;;;2.60;;
60030;SDS011;45901;47.600;9.890;2023-04-03T15:19:50;5.50;;;2.60;;
60030;SDS011;45901;47.600;9.890;2023-04-03T15:22:18;8.80;;;3.93;;
60030;SDS011;45901;47.600;9.890;2023-04-03T15:24:47;6.57;;;2.90;;
60030;SDS011;45901;47.600;9.890;2023-04-03T15:27:15;5.43;;;2.80;;
60030;SDS011;45901;47.600;9.890;2023-04-03T15:29:43;7.47;;;3.23;;
60030;SDS011;45901;47.600;9.890;2023-04-03T15:32:11;6.67;;;3.63;;
60030;SDS011;45901;47.600;9.890;2023-04-03T15:34:39;7.40;;;3.37;;
60030;SDS011;45901;47.600;9.890;2023-04-03T15:37:07;6.97;;;3.83;;
60030;SDS011;45901;47.600;9.890;2023-04-03T15:39:34;6.13;;;3.60;;
60030;SDS011;45901;47.600;9.890;2023-04-03T15:42:03;6.83;;;4.10;;
60030;SDS011;45901;47.600;9.890;2023-04-03T15:44:31;5.63;;;3.30;;
60030;SDS011;45901;47.600;9.890;2023-04-03T15:47:00;6.47;;;3.27;;
60030;SDS011;45901;47.600;9.890;2023-04-03T15:49:28;9.83;;;5.17;;
60030;SDS011;45901;47.600;9.890;2023-04-03T15:51:56;12.53;;;4.27;;
60030;SDS011;45901;47.600;9.890;2023-04-03T15:54:23;10.33;;;3.73;;
60030;SDS011;45901;47.600;9.890;2023-04-03T15:56:51;8.80;;;4.03;;
60030;SDS011;45901;47.600;9.890;2023-04-03T15:59:20;8.13;;;3.57;;
60030;SDS011;45901;47.600;9.890;2023-04-03T16:01:48;6.43;;;2.90;;
60030;SDS011;45901;47.600;9.890;2023-04-03T16:04:17;7.13;;;3.20;;
60030;SDS011;45901;47.600;9.890;2023-04-03T16:06:45;5.53;;;3.20;;
60030;SDS011;45901;47.600;9.890;2023-04-03T16:09:13;5.83;;;3.53;;
60030;SDS011;45901;47.600;9.890;2023-04-03T16:11:40;5.70;;;3.47;;
60030;SDS011;45901;47.600;9.890;2023-04-03T16:14:08;7.27;;;3.53;;
60030;SDS011;45901;47.600;9.890;2023-04-03T16:16:38;7.43;;;3.70;;
60030;SDS011;45901;47.600;9.890;2023-04-03T16:19:06;6.47;;;3.20;;
60030;SDS011;45901;47.600;9.890;2023-04-03T16:21:35;5.80;;;3.30;;
60030;SDS011;45901;47.600;9.890;2023-04-03T16:24:02;6.03;;;3.03;;
60030;SDS011;45901;47.600;9.890;2023-04-03T16:26:30;6.67;;;3.40;;
60030;SDS011;45901;47.600;9.890;2023-04-03T16:28:58;6.83;;;3.43;;
60030;SDS011;45901;47.600;9.890;2023-04-03T16:31:26;5.67;;;3.07;;
60030;SDS011;45901;47.600;9.890;2023-04-03T16:33:55;4.63;;;2.93;;
60030;SDS011;45901;47.600;9.890;2023-04-03T16:36:23;5.60;;;2.73;;
60030;SDS011;45901;47.600;9.890;2023-04-03T16:38:51;4.20;;;2.77;;
60030;SDS011;45901;47.600;9.890;2023-04-03T16:41:19;6.73;;;2.87;;